Time;durP1;ratioP1;P1;durP2;ratioP2;P2;SDS_P1;SDS_P2;PMS_P1;PMS_P2;Temp;Humidity;BMP_temperature;BMP_pressure;BME280_temperature;BME280_humidity;BME280_pressure;Samples;Min_cycle;Max_cycle;Signal;HPM_P1;HPM_P2
2024/04/17 00:01:22;;;;;;;10.20;3.35;;;7.20;91.60;;;;;;5442492;26;20025;-86
2024/04/17 00:03:48;;;;;;;13.43;3.65;;;7.20;91.60;;;;;;5434095;26;20414;-83
2024/04/17 00:06:13;;;;;;;14.18;4.20;;;7.20;91.50;;;;;;5424361;26;20803;-82
2024/04/17 00:08:39;;;;;;;13.55;3.90;;;7.20;91.70;;;;;;5428353;26;20066;-82
2024/04/17 00:11:05;;;;;;;15.77;4.03;;;7.30;91.70;;;;;;5440972;26;20002;-83
2024/04/17 00:13:31;;;;;;;11.88;3.67;;;7.20;91.80;;;;;;5412286;26;20734;-82
2024/04/17 00:16:01;;;;;;;11.63;3.80;;;7.20;91.90;;;;;;5426942;26;20606;-84
2024/04/17 00:18:27;;;;;;;13.73;3.40;;;7.30;91.80;;;;;;5430592;26;20013;-83
2024/04/17 00:20:53;;;;;;;18.90;4.20;;;7.30;91.90;;;;;;5432625;26;19991;-84
2024/04/17 00:23:18;;;;;;;13.23;4.10;;;7.30;92.00;;;;;;5428855;26;20062;-83
2024/04/17 00:25:44;;;;;;;15.05;4.20;;;7.30;92.10;;;;;;5433017;26;20305;-83
2024/04/17 00:28:09;;;;;;;11.77;3.50;;;7.30;92.20;;;;;;5435146;26;20066;-83
2024/04/17 00:30:35;;;;;;;10.70;4.38;;;7.30;92.30;;;;;;5433014;26;20083;-83
2024/04/17 00:33:01;;;;;;;11.68;3.80;;;7.30;92.30;;;;;;5438756;26;20017;-83
2024/04/17 00:35:26;;;;;;;13.13;4.13;;;7.30;92.40;;;;;;5393188;26;20071;-83
2024/04/17 00:37:52;;;;;;;13.18;4.40;;;7.30;92.40;;;;;;5435617;26;20026;-83
2024/04/17 00:40:17;;;;;;;8.20;3.50;;;7.30;92.30;;;;;;5431401;26;19995;-83
2024/04/17 00:42:43;;;;;;;10.55;3.97;;;7.20;92.50;;;;;;5397658;26;19996;-82
2024/04/17 00:45:09;;;;;;;11.18;3.53;;;7.20;92.50;;;;;;5433807;26;19991;-83
2024/04/17 00:47:34;;;;;;;11.15;4.55;;;7.20;92.50;;;;;;5438377;26;20130;-83
2024/04/17 00:50:01;;;;;;;11.70;3.88;;;7.20;92.50;;;;;;5439070;26;20071;-82
2024/04/17 00:52:26;;;;;;;9.90;3.53;;;7.20;92.60;;;;;;5426478;26;19999;-83
2024/04/17 00:54:53;;;;;;;8.38;3.90;;;7.20;92.70;;;;;;5432710;26;20067;-83
2024/04/17 00:57:21;;;;;;;10.00;3.72;;;7.20;92.70;;;;;;5402414;26;20384;-82
2024/04/17 00:59:47;;;;;;;11.55;4.07;;;7.30;92.80;;;;;;5428418;26;19999;-83
2024/04/17 01:02:13;;;;;;;11.40;4.18;;;7.30;92.90;;;;;;5412276;26;20109;-83
2024/04/17 01:04:40;;;;;;;11.30;4.25;;;7.30;93.00;;;;;;5404769;26;20556;-82
2024/04/17 01:07:05;;;;;;;19.27;4.25;;;7.40;93.00;;;;;;5398372;26;20739;-82
2024/04/17 01:09:31;;;;;;;11.25;3.40;;;7.30;93.00;;;;;;5432977;26;20003;-83
2024/04/17 01:11:56;;;;;;;11.95;3.92;;;7.30;93.00;;;;;;5431784;26;20213;-82
2024/04/17 01:14:22;;;;;;;7.82;4.03;;;7.30;92.90;;;;;;5431962;26;20498;-83
2024/04/17 01:16:48;;;;;;;8.80;3.80;;;7.20;92.80;;;;;;5429471;26;20425;-83
2024/04/17 01:19:14;;;;;;;13.20;4.20;;;7.20;92.80;;;;;;5432406;26;20010;-82
2024/04/17 01:21:40;;;;;;;11.25;3.80;;;7.10;92.70;;;;;;5432953;26;19994;-83
2024/04/17 01:24:05;;;;;;;11.63;4.18;;;7.10;92.80;;;;;;5418521;26;20007;-82
2024/04/17 01:26:31;;;;;;;11.88;3.75;;;7.10;92.80;;;;;;5432780;26;19991;-83
2024/04/17 01:28:57;;;;;;;12.65;4.13;;;7.10;92.80;;;;;;5431919;26;20006;-83
2024/04/17 01:31:23;;;;;;;11.45;4.75;;;7.10;92.80;;;;;;5427208;26;19999;-83
2024/04/17 01:33:48;;;;;;;11.85;4.63;;;7.10;92.80;;;;;;5399807;26;19995;-84
2024/04/17 01:36:14;;;;;;;13.52;4.35;;;7.10;92.90;;;;;;5430805;26;19999;-83
2024/04/17 01:38:40;;;;;;;14.18;4.43;;;7.00;92.80;;;;;;5406465;26;20702;-84
2024/04/17 01:41:06;;;;;;;13.40;4.97;;;7.00;93.00;;;;;;5392490;26;20317;-83
2024/04/17 01:43:32;;;;;;;10.15;4.20;;;7.00;92.90;;;;;;5412703;26;20014;-82
2024/04/17 01:45:59;;;;;;;11.35;5.18;;;7.00;92.80;;;;;;5437234;26;20014;-83
2024/04/17 01:48:25;;;;;;;10.30;4.85;;;7.00;92.80;;;;;;5413075;26;20280;-83
2024/04/17 01:50:51;;;;;;;11.65;5.28;;;7.00;92.90;;;;;;5402680;26;20118;-82
2024/04/17 01:53:17;;;;;;;9.07;4.43;;;7.00;93.00;;;;;;5438102;26;20753;-83
2024/04/17 01:55:45;;;;;;;13.30;5.00;;;7.00;93.10;;;;;;5427667;26;20079;-85
2024/04/17 01:58:12;;;;;;;11.88;5.07;;;7.00;93.10;;;;;;5427864;26;19999;-83
2024/04/17 02:00:38;;;;;;;12.63;5.30;;;7.00;93.10;;;;;;5441909;26;20006;-83
2024/04/17 02:03:04;;;;;;;14.40;5.38;;;7.00;93.20;;;;;;5398704;26;19998;-82
2024/04/17 02:05:30;;;;;;;11.35;4.70;;;7.00;93.10;;;;;;5430746;26;19999;-83
2024/04/17 02:07:56;;;;;;;15.98;5.65;;;7.10;93.20;;;;;;5434233;26;19998;-82
2024/04/17 02:10:22;;;;;;;10.27;4.70;;;7.10;93.20;;;;;;5415317;26;20078;-82
2024/04/17 02:12:48;;;;;;;12.38;5.40;;;7.00;93.20;;;;;;5413307;26;19995;-83
2024/04/17 02:15:14;;;;;;;12.15;4.75;;;7.00;93.20;;;;;;5424510;26;19994;-81
2024/04/17 02:17:39;;;;;;;12.50;4.80;;;7.00;93.30;;;;;;5433737;26;20707;-81
2024/04/17 02:20:06;;;;;;;10.85;5.28;;;7.00;93.20;;;;;;5431379;26;20002;-82
2024/04/17 02:22:32;;;;;;;19.88;5.55;;;7.00;93.20;;;;;;5417687;26;19998;-81
2024/04/17 02:24:58;;;;;;;13.73;5.50;;;7.00;93.30;;;;;;5407080;26;20010;-82
2024/04/17 02:27:24;;;;;;;16.30;6.25;;;7.00;93.30;;;;;;5428407;26;20003;-83
2024/04/17 02:29:51;;;;;;;14.35;4.93;;;7.00;93.30;;;;;;5400062;26;20099;-81
2024/04/17 02:32:17;;;;;;;10.30;5.57;;;7.00;93.30;;;;;;5425642;26;20011;-83
2024/04/17 02:34:43;;;;;;;12.98;4.90;;;6.90;93.30;;;;;;5402924;26;20491;-84
2024/04/17 02:37:08;;;;;;;12.73;5.35;;;6.80;93.40;;;;;;5415239;26;20015;-83
2024/04/17 02:39:35;;;;;;;13.15;5.38;;;6.90;93.40;;;;;;5434054;26;19994;-82
2024/04/17 02:42:01;;;;;;;10.30;4.75;;;6.80;93.40;;;;;;5427135;26;20533;-84
2024/04/17 02:44:26;;;;;;;15.13;4.78;;;6.80;93.30;;;;;;5432874;26;20043;-82
2024/04/17 02:46:52;;;;;;;13.98;4.78;;;6.80;93.30;;;;;;5432520;26;20031;-82
2024/04/17 02:49:18;;;;;;;9.98;5.07;;;6.70;93.30;;;;;;5431797;26;20787;-82
2024/04/17 02:51:45;;;;;;;10.35;4.43;;;6.80;93.30;;;;;;5430351;26;20027;-84
2024/04/17 02:54:11;;;;;;;9.85;5.13;;;6.70;93.30;;;;;;5406080;26;20006;-82
2024/04/17 02:56:36;;;;;;;12.80;5.07;;;6.80;93.40;;;;;;5433250;26;19995;-83
2024/04/17 02:59:02;;;;;;;9.73;4.78;;;6.70;93.40;;;;;;5409801;26;20003;-84
2024/04/17 03:01:28;;;;;;;12.35;5.40;;;6.70;93.50;;;;;;5420647;26;20451;-84
2024/04/17 03:03:54;;;;;;;13.00;5.32;;;6.70;93.60;;;;;;5396741;26;20340;-83
2024/04/17 03:06:19;;;;;;;10.00;4.80;;;6.60;93.70;;;;;;5425376;26;20058;-83
2024/04/17 03:08:48;;;;;;;9.60;4.70;;;6.70;93.80;;;;;;5422731;26;20341;-82
2024/04/17 03:11:13;;;;;;;15.45;5.72;;;6.70;93.80;;;;;;5398395;26;20082;-82
2024/04/17 03:13:39;;;;;;;10.95;5.57;;;6.60;93.80;;;;;;5432428;26;20003;-82
2024/04/17 03:16:05;;;;;;;11.20;5.00;;;6.60;93.80;;;;;;5428753;26;20036;-84
2024/04/17 03:18:32;;;;;;;9.63;4.70;;;6.60;93.80;;;;;;5414240;26;19999;-84
2024/04/17 03:21:01;;;;;;;11.32;4.70;;;6.60;93.80;;;;;;5400179;26;19995;-83
2024/04/17 03:23:27;;;;;;;10.88;4.88;;;6.60;93.80;;;;;;5430755;26;20091;-82
2024/04/17 03:26:00;;;;;;;13.55;4.53;;;6.60;93.70;;;;;;5429547;26;20007;-84
2024/04/17 03:28:27;;;;;;;12.65;5.10;;;6.50;93.70;;;;;;5415451;26;20857;-83
2024/04/17 03:30:53;;;;;;;15.43;5.35;;;6.40;93.60;;;;;;5429940;26;20898;-83
2024/04/17 03:33:18;;;;;;;13.18;5.45;;;6.50;93.60;;;;;;5401755;26;20002;-82
2024/04/17 03:35:57;;;;;;;12.02;5.32;;;6.40;93.60;;;;;;5386463;26;20122;-83
2024/04/17 03:38:23;;;;;;;12.20;5.07;;;6.40;93.70;;;;;;5429618;26;19999;-82
2024/04/17 03:40:49;;;;;;;12.10;4.82;;;6.40;93.60;;;;;;5405416;26;19999;-83
2024/04/17 03:43:15;;;;;;;11.15;4.72;;;6.30;93.50;;;;;;5437631;26;20460;-85
2024/04/17 03:45:41;;;;;;;12.60;5.82;;;6.30;93.50;;;;;;5403249;26;20049;-84
2024/04/17 03:48:07;;;;;;;13.23;5.28;;;6.20;93.50;;;;;;5426387;26;20003;-83
2024/04/17 03:50:32;;;;;;;10.80;5.53;;;6.20;93.50;;;;;;5434519;26;19994;-83
2024/04/17 03:52:58;;;;;;;14.70;5.93;;;6.10;93.50;;;;;;5408359;26;20011;-84
2024/04/17 03:55:24;;;;;;;10.57;5.38;;;6.10;93.50;;;;;;5411688;26;19995;-83
2024/04/17 03:57:49;;;;;;;11.70;5.80;;;6.10;93.50;;;;;;5433202;26;20003;-84
2024/04/17 04:00:15;;;;;;;12.50;5.53;;;6.00;93.50;;;;;;5359155;26;20000;-83
2024/04/17 04:02:41;;;;;;;11.40;5.10;;;6.00;93.60;;;;;;5414166;26;20039;-84
2024/04/17 04:05:07;;;;;;;11.65;5.05;;;5.90;93.60;;;;;;5395556;26;19995;-84
2024/04/17 04:07:32;;;;;;;14.23;5.85;;;6.00;93.60;;;;;;5390480;26;20022;-82
2024/04/17 04:09:58;;;;;;;14.25;5.03;;;5.90;93.60;;;;;;5401036;26;19996;-83
2024/04/17 04:12:24;;;;;;;13.75;5.97;;;5.80;93.70;;;;;;5426739;26;20042;-84
2024/04/17 04:14:49;;;;;;;11.20;4.78;;;5.80;93.70;;;;;;5386388;26;20021;-83
2024/04/17 04:17:15;;;;;;;13.35;5.53;;;5.80;93.70;;;;;;5425394;26;20324;-84
2024/04/17 04:19:41;;;;;;;12.10;5.65;;;5.70;93.70;;;;;;5395926;26;20457;-83
2024/04/17 04:22:06;;;;;;;15.70;5.80;;;5.70;93.60;;;;;;5400432;26;20682;-83
2024/04/17 04:24:32;;;;;;;16.20;6.28;;;5.70;93.70;;;;;;5380489;26;20006;-82
2024/04/17 04:26:58;;;;;;;17.83;5.72;;;5.70;93.60;;;;;;5420328;26;19999;-83
2024/04/17 04:29:24;;;;;;;16.13;5.00;;;5.70;93.70;;;;;;5418063;26;20014;-83
2024/04/17 04:31:49;;;;;;;17.48;5.78;;;5.60;93.60;;;;;;5383561;26;20040;-83
2024/04/17 04:34:15;;;;;;;18.85;6.13;;;5.60;93.60;;;;;;5427226;26;19997;-84
2024/04/17 04:36:41;;;;;;;12.43;4.90;;;5.60;93.60;;;;;;5433754;26;19991;-83
2024/04/17 04:39:06;;;;;;;13.95;4.95;;;5.60;93.50;;;;;;5428406;26;19995;-83
2024/04/17 04:41:32;;;;;;;15.10;5.25;;;5.60;93.50;;;;;;5409180;26;20793;-83
2024/04/17 04:43:57;;;;;;;17.60;5.38;;;5.60;93.50;;;;;;5402938;26;20012;-82
2024/04/17 04:46:24;;;;;;;13.57;5.18;;;5.60;93.40;;;;;;5409183;26;19999;-82
2024/04/17 04:48:49;;;;;;;14.18;5.65;;;5.50;93.40;;;;;;5402042;26;20003;-84
2024/04/17 04:51:15;;;;;;;17.35;5.15;;;5.60;93.40;;;;;;5404619;26;20480;-82
2024/04/17 04:53:40;;;;;;;15.38;5.47;;;5.50;93.30;;;;;;5398470;26;20000;-82
2024/04/17 04:56:06;;;;;;;14.07;5.47;;;5.50;93.30;;;;;;5401143;26;20074;-83
2024/04/17 04:58:32;;;;;;;15.35;6.13;;;5.60;93.30;;;;;;5400759;26;20000;-84
2024/04/17 05:00:58;;;;;;;15.07;5.55;;;5.60;93.20;;;;;;5386535;26;20004;-83
2024/04/17 05:03:23;;;;;;;16.67;5.85;;;5.60;93.10;;;;;;5407118;26;20051;-84
2024/04/17 05:05:49;;;;;;;13.00;5.25;;;5.60;93.00;;;;;;5398176;26;20522;-84
2024/04/17 05:08:14;;;;;;;12.10;4.80;;;5.60;93.00;;;;;;5392229;26;20003;-82
2024/04/17 05:10:40;;;;;;;18.70;5.40;;;5.60;92.90;;;;;;5369809;26;20000;-82
2024/04/17 05:13:06;;;;;;;16.23;5.65;;;5.60;92.80;;;;;;5403326;26;20008;-84
2024/04/17 05:15:32;;;;;;;15.77;5.38;;;5.60;92.70;;;;;;5405768;26;20019;-84
2024/04/17 05:17:57;;;;;;;20.67;5.18;;;5.70;92.60;;;;;;5421429;26;20126;-83
2024/04/17 05:20:23;;;;;;;17.40;5.40;;;5.70;92.50;;;;;;5410480;26;21184;-83
2024/04/17 05:22:49;;;;;;;22.25;5.97;;;5.70;92.40;;;;;;5405407;26;20002;-81
2024/04/17 05:25:19;;;;;;;16.98;5.78;;;5.70;92.30;;;;;;5415404;26;20001;-83
2024/04/17 05:27:45;;;;;;;21.05;5.65;;;5.70;92.30;;;;;;5393358;26;20401;-82
2024/04/17 05:30:11;;;;;;;17.48;6.05;;;5.70;92.20;;;;;;5403404;26;20013;-81
2024/04/17 05:32:37;;;;;;;16.83;5.20;;;5.80;92.20;;;;;;5399925;26;20133;-83
2024/04/17 05:35:03;;;;;;;20.55;6.43;;;5.80;92.10;;;;;;5406341;26;19995;-81
2024/04/17 05:37:29;;;;;;;19.05;5.25;;;5.80;92.00;;;;;;5403185;26;19996;-80
2024/04/17 05:39:55;;;;;;;19.85;4.85;;;5.80;92.00;;;;;;5401986;26;20699;-81
2024/04/17 05:42:20;;;;;;;15.93;5.07;;;5.80;91.90;;;;;;5404009;26;20016;-81
2024/04/17 05:44:46;;;;;;;18.85;5.20;;;5.90;91.60;;;;;;5396837;26;20004;-81
2024/04/17 05:47:11;;;;;;;14.82;4.70;;;5.90;91.60;;;;;;5402008;26;20036;-81
2024/04/17 05:49:37;;;;;;;17.30;5.00;;;5.90;91.60;;;;;;5385125;26;20534;-79
2024/04/17 05:52:09;;;;;;;17.63;5.22;;;6.00;91.40;;;;;;5392444;26;20161;-81
2024/04/17 05:54:35;;;;;;;22.02;5.07;;;6.00;91.40;;;;;;5384276;26;20015;-80
2024/04/17 05:57:01;;;;;;;17.13;5.00;;;6.10;91.30;;;;;;5417618;26;20011;-81
2024/04/17 05:59:27;;;;;;;16.95;5.28;;;6.10;91.10;;;;;;5374919;26;20016;-80
2024/04/17 06:01:52;;;;;;;17.77;4.78;;;6.10;91.10;;;;;;5400262;26;20340;-81
2024/04/17 06:04:18;;;;;;;21.35;4.93;;;6.20;91.00;;;;;;5399028;26;20728;-81
2024/04/17 06:06:44;;;;;;;22.27;5.35;;;6.20;91.00;;;;;;5401489;26;20463;-81
2024/04/17 06:09:10;;;;;;;15.40;5.07;;;6.30;90.90;;;;;;5392934;26;20003;-81
2024/04/17 06:11:36;;;;;;;21.95;5.38;;;6.40;90.80;;;;;;5410152;26;19994;-80
2024/04/17 06:14:01;;;;;;;16.75;4.60;;;6.60;90.80;;;;;;5392007;26;20326;-81
2024/04/17 06:16:27;;;;;;;18.77;5.45;;;6.70;90.50;;;;;;5399736;26;20031;-81
2024/04/17 06:18:53;;;;;;;16.67;5.50;;;6.90;90.30;;;;;;5401666;26;20554;-82
2024/04/17 06:21:18;;;;;;;17.52;4.90;;;7.10;90.00;;;;;;5390298;26;19995;-81
2024/04/17 06:23:44;;;;;;;18.17;4.78;;;7.30;89.60;;;;;;5384208;26;20007;-81
2024/04/17 06:26:10;;;;;;;18.98;4.57;;;7.40;89.00;;;;;;5382408;26;20042;-81
2024/04/17 06:28:35;;;;;;;18.10;5.25;;;7.50;89.00;;;;;;5393704;26;20455;-82
2024/04/17 06:31:01;;;;;;;23.77;6.20;;;7.60;88.70;;;;;;5403213;26;20004;-81
2024/04/17 06:33:26;;;;;;;21.42;5.32;;;7.60;88.30;;;;;;5393499;26;20053;-81
2024/04/17 06:35:52;;;;;;;18.60;4.63;;;7.70;88.50;;;;;;5389738;26;20461;-80
2024/04/17 06:38:17;;;;;;;14.20;4.22;;;7.70;88.20;;;;;;5387205;26;19995;-82
2024/04/17 06:40:43;;;;;;;16.58;4.60;;;7.80;88.30;;;;;;5408111;26;20066;-81
2024/04/17 06:43:09;;;;;;;16.65;4.88;;;8.00;88.00;;;;;;5397556;26;20032;-81
2024/04/17 06:45:34;;;;;;;17.10;4.85;;;8.00;87.90;;;;;;5390882;26;20735;-81
2024/04/17 06:48:00;;;;;;;19.25;4.95;;;8.00;87.80;;;;;;5404205;26;20023;-82
2024/04/17 06:50:26;;;;;;;16.20;4.68;;;8.00;87.60;;;;;;5389783;26;20053;-80
2024/04/17 06:52:51;;;;;;;15.68;4.63;;;8.10;87.40;;;;;;5398932;26;20007;-80
2024/04/17 06:55:17;;;;;;;16.42;4.40;;;8.10;87.60;;;;;;5410787;26;20008;-81
2024/04/17 06:57:43;;;;;;;17.88;5.20;;;8.10;87.10;;;;;;5395687;26;20767;-81
2024/04/17 07:00:09;;;;;;;18.15;5.30;;;8.10;87.30;;;;;;5406392;26;20000;-81
2024/04/17 07:02:35;;;;;;;14.52;5.28;;;8.10;87.20;;;;;;5416909;26;20310;-81
2024/04/17 07:05:01;;;;;;;15.25;4.93;;;8.20;87.50;;;;;;5404223;26;20976;-81
2024/04/17 07:07:26;;;;;;;13.80;4.45;;;8.50;87.20;;;;;;5395580;26;20042;-82
2024/04/17 07:09:52;;;;;;;17.40;4.30;;;8.60;86.60;;;;;;5390645;26;20081;-83
2024/04/17 07:12:19;;;;;;;16.80;4.50;;;8.60;86.00;;;;;;5407148;26;20070;-82
2024/04/17 07:14:45;;;;;;;19.30;4.22;;;8.80;85.80;;;;;;5419652;26;20734;-81
2024/04/17 07:17:11;;;;;;;14.57;4.28;;;8.80;85.00;;;;;;5407273;26;20072;-83
2024/04/17 07:19:36;;;;;;;17.23;4.22;;;8.90;85.00;;;;;;5391523;26;21549;-81
2024/04/17 07:22:02;;;;;;;25.02;4.63;;;9.10;84.80;;;;;;5402516;26;20008;-82
2024/04/17 07:24:28;;;;;;;17.13;4.15;;;9.40;84.80;;;;;;5390694;26;20449;-81
2024/04/17 07:26:54;;;;;;;17.15;4.32;;;9.60;84.20;;;;;;5401239;26;20750;-82
2024/04/17 07:29:20;;;;;;;17.17;4.75;;;9.90;83.20;;;;;;5397887;26;19995;-81
2024/04/17 07:31:45;;;;;;;18.33;4.00;;;10.00;82.40;;;;;;5401878;26;20007;-81
2024/04/17 07:34:11;;;;;;;18.52;3.55;;;10.20;82.00;;;;;;5405979;26;19998;-82
2024/04/17 07:36:37;;;;;;;16.80;4.35;;;10.50;80.30;;;;;;5425086;26;19998;-80
2024/04/17 07:39:02;;;;;;;15.30;3.30;;;10.60;79.20;;;;;;5423218;26;20337;-82
2024/04/17 07:41:28;;;;;;;16.25;4.07;;;10.70;77.90;;;;;;5419421;26;20000;-81
2024/04/17 07:43:55;;;;;;;12.23;4.30;;;10.80;76.90;;;;;;5400055;26;19995;-80
2024/04/17 07:46:21;;;;;;;12.70;2.78;;;11.10;76.90;;;;;;5390363;26;20010;-83
2024/04/17 07:48:47;;;;;;;11.27;2.88;;;11.30;74.30;;;;;;5397311;26;20000;-80
2024/04/17 07:51:13;;;;;;;11.77;3.00;;;11.70;75.00;;;;;;5389305;26;20003;-82
2024/04/17 07:53:38;;;;;;;14.00;3.05;;;11.80;73.40;;;;;;5413027;26;20129;-80
2024/04/17 07:56:04;;;;;;;11.40;2.53;;;11.40;72.70;;;;;;5403370;26;20438;-83
2024/04/17 07:58:30;;;;;;;9.05;2.22;;;11.00;72.40;;;;;;5399842;26;20423;-85
2024/04/17 08:00:56;;;;;;;9.80;2.67;;;10.80;69.60;;;;;;5396769;26;20003;-82
2024/04/17 08:03:21;;;;;;;11.90;3.10;;;10.60;73.70;;;;;;5398813;26;20011;-81
2024/04/17 08:05:47;;;;;;;18.20;3.55;;;10.60;76.10;;;;;;5389213;26;20060;-79
2024/04/17 08:08:13;;;;;;;17.05;3.47;;;10.40;76.90;;;;;;5416071;26;20414;-80
2024/04/17 08:10:40;;;;;;;15.13;4.30;;;10.20;77.30;;;;;;5387141;26;20047;-81
2024/04/17 08:13:12;;;;;;;13.95;4.93;;;10.00;77.90;;;;;;5394696;26;20004;-80
2024/04/17 08:15:48;;;;;;;14.55;5.18;;;9.70;78.60;;;;;;5403752;26;20072;-80
2024/04/17 08:18:14;;;;;;;10.52;4.22;;;9.70;79.70;;;;;;5402750;26;20006;-80
2024/04/17 08:20:40;;;;;;;11.05;4.60;;;9.60;78.60;;;;;;5427107;26;20006;-80
2024/04/17 08:23:06;;;;;;;13.57;4.40;;;9.60;78.50;;;;;;5441215;26;19998;-81
2024/04/17 08:25:32;;;;;;;11.88;4.03;;;9.60;78.60;;;;;;5434178;26;20005;-81
2024/04/17 08:27:58;;;;;;;11.25;4.40;;;9.70;79.50;;;;;;5430032;26;20010;-81
2024/04/17 08:30:24;;;;;;;11.77;3.92;;;9.80;79.00;;;;;;5421933;26;20002;-81
2024/04/17 08:32:50;;;;;;;10.07;3.63;;;9.90;79.20;;;;;;5432518;26;20052;-81
2024/04/17 08:35:15;;;;;;;12.32;4.40;;;9.80;79.00;;;;;;5415106;26;20010;-80
2024/04/17 08:37:41;;;;;;;17.10;5.70;;;9.90;78.90;;;;;;5434956;26;19999;-80
2024/04/17 08:40:10;;;;;;;14.95;5.25;;;9.80;79.00;;;;;;5428984;26;20006;-81
2024/04/17 08:42:36;;;;;;;16.70;5.15;;;9.60;79.90;;;;;;5436763;26;20011;-81
2024/04/17 08:45:08;;;;;;;12.85;4.72;;;9.40;81.60;;;;;;5440819;26;20003;-81
2024/04/17 08:47:36;;;;;;;13.18;5.20;;;9.30;82.80;;;;;;5422265;26;20079;-80
2024/04/17 08:50:03;;;;;;;9.63;3.70;;;9.10;82.20;;;;;;5425545;26;20017;-80
2024/04/17 08:52:30;;;;;;;12.80;4.05;;;8.80;80.20;;;;;;5430298;26;20541;-83
2024/04/17 08:54:58;;;;;;;10.52;4.13;;;8.60;80.30;;;;;;5435054;26;20010;-83
2024/04/17 08:57:24;;;;;;;12.38;4.68;;;8.50;80.50;;;;;;5438221;26;19995;-80
2024/04/17 08:59:50;;;;;;;9.48;3.75;;;8.40;81.50;;;;;;5433098;26;20320;-81
2024/04/17 09:02:16;;;;;;;14.45;5.07;;;8.40;82.10;;;;;;5431877;26;19999;-81
2024/04/17 09:04:44;;;;;;;10.68;5.00;;;8.40;82.20;;;;;;5440027;26;20028;-80
2024/04/17 09:07:10;;;;;;;15.38;5.55;;;8.40;82.70;;;;;;5433655;26;20388;-78
2024/04/17 09:09:40;;;;;;;11.38;4.40;;;8.40;83.60;;;;;;5427718;26;20035;-81
2024/04/17 09:12:11;;;;;;;11.23;5.55;;;8.10;83.50;;;;;;5432967;26;20036;-81
2024/04/17 09:14:37;;;;;;;7.88;4.47;;;7.80;85.20;;;;;;5422388;26;20139;-79
2024/04/17 09:17:03;;;;;;;7.88;3.42;;;7.50;85.50;;;;;;5431725;26;20537;-81
2024/04/17 09:19:29;;;;;;;12.57;4.53;;;7.50;85.80;;;;;;5400666;26;20050;-80
2024/04/17 09:21:55;;;;;;;8.07;4.55;;;7.50;85.70;;;;;;5387861;26;20000;-81
2024/04/17 09:24:20;;;;;;;10.40;4.95;;;7.50;86.10;;;;;;5394808;26;20469;-81
2024/04/17 09:26:46;;;;;;;8.20;4.65;;;7.40;85.50;;;;;;5397309;26;20093;-80
2024/04/17 09:29:16;;;;;;;12.65;4.70;;;7.40;86.00;;;;;;5391883;26;20023;-81
2024/04/17 09:31:45;;;;;;;7.88;4.07;;;7.50;86.10;;;;;;5395648;26;20027;-81
2024/04/17 09:34:15;;;;;;;8.15;4.60;;;7.60;86.30;;;;;;5358596;26;20126;-80
2024/04/17 09:36:50;;;;;;;9.43;4.88;;;7.60;86.30;;;;;;5397064;26;20003;-80
2024/04/17 09:39:16;;;;;;;;;;;7.70;85.90;;;;;;5397934;26;20011;-83
2024/04/17 09:41:42;;;;;;;10.32;5.40;;;8.00;85.80;;;;;;5390410;26;20257;-81
2024/04/17 09:44:11;;;;;;;10.13;4.90;;;8.10;85.20;;;;;;5392873;26;20081;-81
2024/04/17 09:46:46;;;;;;;8.07;5.03;;;8.30;85.80;;;;;;5395376;26;19995;-82
2024/04/17 09:49:18;;;;;;;9.20;6.13;;;8.60;86.00;;;;;;5395619;26;20504;-82
2024/04/17 09:51:46;;;;;;;13.18;5.47;;;8.90;85.80;;;;;;5408965;26;19999;-82
2024/04/17 09:54:14;;;;;;;10.55;5.20;;;9.00;84.70;;;;;;5406370;26;20011;-82
2024/04/17 09:56:44;;;;;;;13.43;5.40;;;9.20;85.00;;;;;;5392163;26;20018;-81
2024/04/17 09:59:11;;;;;;;11.48;5.82;;;9.40;84.60;;;;;;5379504;26;19992;-83
2024/04/17 10:01:38;;;;;;;9.73;5.53;;;9.90;85.00;;;;;;5382582;26;19991;-82
2024/04/17 10:04:05;;;;;;;10.27;6.05;;;10.60;84.70;;;;;;5407750;26;19995;-82
2024/04/17 10:06:36;;;;;;;10.90;6.70;;;10.80;82.90;;;;;;5351915;26;20030;-82
2024/04/17 10:09:03;;;;;;;15.60;7.05;;;11.10;83.10;;;;;;5389584;26;20456;-83
2024/04/17 10:11:29;;;;;;;15.23;7.05;;;11.00;82.00;;;;;;5373739;26;20544;-84
2024/04/17 10:13:56;;;;;;;15.23;7.95;;;10.60;81.80;;;;;;5408929;26;19999;-82
2024/04/17 10:16:22;;;;;;;10.10;5.15;;;10.00;83.10;;;;;;5396100;26;20061;-82
2024/04/17 10:18:48;;;;;;;9.30;4.43;;;9.50;81.70;;;;;;5390038;26;20073;-83
2024/04/17 10:21:20;;;;;;;9.88;4.43;;;9.20;83.00;;;;;;5394562;26;20047;-84
2024/04/17 10:24:06;;;;;;;9.30;4.25;;;9.00;82.70;;;;;;5388687;26;20077;-84
2024/04/17 10:26:52;;;;;;;6.90;4.10;;;8.90;83.20;;;;;;5385274;26;20036;-83
2024/04/17 10:29:28;;;;;;;9.93;4.28;;;8.70;84.20;;;;;;5391034;26;20004;-81
2024/04/17 10:32:14;;;;;;;10.88;4.88;;;8.70;83.70;;;;;;5395539;26;20078;-82
2024/04/17 10:34:53;;;;;;;6.82;3.60;;;8.50;83.60;;;;;;5381218;26;20006;-83
2024/04/17 10:37:19;;;;;;;7.95;4.50;;;8.10;84.70;;;;;;5386133;26;20509;-82
2024/04/17 10:39:46;;;;;;;11.02;3.95;;;7.90;84.90;;;;;;5381189;26;20010;-83
2024/04/17 10:42:19;;;;;;;7.60;3.53;;;7.90;85.90;;;;;;5381128;26;20012;-82
2024/04/17 10:44:52;;;;;;;6.35;3.20;;;8.10;84.40;;;;;;5379515;26;20035;-86
2024/04/17 10:47:24;;;;;;;7.38;3.78;;;8.30;83.90;;;;;;5383982;26;20050;-83
2024/04/17 10:50:03;;;;;;;7.20;3.45;;;8.60;84.30;;;;;;5377725;26;20628;-84
2024/04/17 10:52:30;;;;;;;7.90;3.90;;;9.00;82.80;;;;;;5386566;26;20000;-82
2024/04/17 10:54:59;;;;;;;6.50;3.22;;;9.10;82.90;;;;;;5361021;26;20019;-82
2024/04/17 10:57:28;;;;;;;6.75;3.38;;;9.20;81.30;;;;;;5374655;26;19997;-81
2024/04/17 10:59:53;;;;;;;5.55;3.05;;;9.40;80.70;;;;;;5384460;26;19999;-82
2024/04/17 11:02:19;;;;;;;4.25;2.80;;;9.60;79.20;;;;;;5355807;26;20004;-82
2024/04/17 11:04:45;;;;;;;6.18;3.60;;;9.70;79.30;;;;;;5378408;26;20459;-83
2024/04/17 11:07:12;;;;;;;7.97;3.45;;;9.80;79.40;;;;;;5386300;26;20105;-83
2024/04/17 11:09:44;;;;;;;6.63;3.33;;;9.90;79.70;;;;;;5370725;26;20043;-82
2024/04/17 11:12:18;;;;;;;5.00;2.72;;;9.90;79.00;;;;;;5386037;26;20006;-83
2024/04/17 11:14:44;;;;;;;8.85;2.90;;;9.90;76.60;;;;;;5379830;26;20123;-83
2024/04/17 11:17:10;;;;;;;7.47;3.20;;;10.10;78.50;;;;;;5385185;26;20564;-83
2024/04/17 11:19:37;;;;;;;6.28;2.63;;;10.40;77.10;;;;;;5380283;26;20004;-82
2024/04/17 11:22:10;;;;;;;3.15;2.28;;;10.10;75.80;;;;;;5382906;26;20010;-84
2024/04/17 11:24:36;;;;;;;5.78;3.05;;;10.00;77.40;;;;;;5383284;26;20328;-83
2024/04/17 11:27:07;;;;;;;8.60;3.20;;;10.10;77.00;;;;;;5380640;26;20004;-84
2024/04/17 11:29:32;;;;;;;6.95;2.75;;;10.40;77.10;;;;;;5381478;26;20032;-82
2024/04/17 11:31:58;;;;;;;6.90;3.50;;;10.20;76.50;;;;;;5350101;26;20125;-81
2024/04/17 11:34:25;;;;;;;7.90;3.40;;;10.10;78.00;;;;;;5381478;26;20939;-82
2024/04/17 11:36:50;;;;;;;7.30;3.30;;;9.90;77.60;;;;;;5379485;26;20011;-83
2024/04/17 11:39:17;;;;;;;5.28;2.97;;;9.80;78.80;;;;;;5383055;26;19995;-82
2024/04/17 11:41:42;;;;;;;6.00;2.90;;;9.50;77.90;;;;;;5382767;26;19996;-81
2024/04/17 11:44:11;;;;;;;5.20;2.53;;;9.40;78.20;;;;;;5348569;26;20069;-82
2024/04/17 11:46:38;;;;;;;5.50;2.55;;;9.10;78.80;;;;;;5384151;26;20007;-80
2024/04/17 11:49:04;;;;;;;4.57;2.40;;;9.10;79.70;;;;;;5374471;26;20024;-81
2024/04/17 11:51:30;;;;;;;4.03;2.10;;;9.00;79.00;;;;;;5389528;26;20010;-81
2024/04/17 11:53:56;;;;;;;3.83;2.00;;;8.90;79.80;;;;;;5362785;26;19999;-80
2024/04/17 11:56:21;;;;;;;7.47;2.50;;;8.90;79.80;;;;;;5377213;26;19996;-81
2024/04/17 11:58:47;;;;;;;6.55;2.70;;;8.90;81.20;;;;;;5385144;26;20347;-80
2024/04/17 12:01:13;;;;;;;5.18;2.80;;;9.20;81.20;;;;;;5388419;26;19995;-80
2024/04/17 12:03:38;;;;;;;6.13;3.25;;;9.40;81.50;;;;;;5385365;26;20137;-80
2024/04/17 12:06:06;;;;;;;7.18;3.38;;;9.70;80.40;;;;;;5387843;26;20011;-81
2024/04/17 12:08:32;;;;;;;6.32;2.97;;;10.20;82.40;;;;;;5398196;26;20049;-80
2024/04/17 12:10:57;;;;;;;6.63;3.33;;;10.50;80.00;;;;;;5381341;26;20686;-81
2024/04/17 12:13:23;;;;;;;10.32;3.08;;;10.50;79.80;;;;;;5361419;26;20000;-81
2024/04/17 12:15:48;;;;;;;8.70;3.10;;;10.00;79.00;;;;;;5396694;26;20551;-80
2024/04/17 12:18:14;;;;;;;7.47;3.70;;;9.70;79.00;;;;;;5385884;26;20004;-81
2024/04/17 12:20:40;;;;;;;14.55;8.40;;;9.40;79.60;;;;;;5380760;26;20000;-80
2024/04/17 12:23:05;;;;;;;13.00;6.55;;;9.40;80.60;;;;;;5383502;26;20004;-81
2024/04/17 12:28:15;;;;;;;14.82;7.68;;;9.60;83.20;;;;;;5379529;26;20134;-81
2024/04/17 12:30:41;;;;;;;9.60;4.97;;;9.70;83.70;;;;;;5378817;26;20007;-80
2024/04/17 12:33:06;;;;;;;7.20;3.28;;;9.80;84.00;;;;;;5385833;26;20565;-81
2024/04/17 12:35:32;;;;;;;10.98;3.72;;;9.90;83.70;;;;;;5387614;26;20483;-81
2024/04/17 12:37:58;;;;;;;7.28;3.95;;;9.90;82.50;;;;;;5361659;26;20011;-82
2024/04/17 12:40:23;;;;;;;8.25;3.75;;;10.10;83.00;;;;;;5394096;26;20018;-82
2024/04/17 12:42:49;;;;;;;9.93;3.90;;;10.50;83.90;;;;;;5395135;26;20044;-81
2024/04/17 12:45:14;;;;;;;8.23;3.30;;;11.20;81.80;;;;;;5371853;26;19995;-81
2024/04/17 12:47:40;;;;;;;6.85;3.30;;;11.80;80.00;;;;;;5395948;26;20305;-81